UAL333 KSLC-KDEN
Flight info
| Callsign | UAL333 |
|---|---|
| Flight time | 0h 58m |
| Altitude | 35000 |
| Route | RUGGD3 PERTY KAMPR LONGZ4 |
| Aircraft | A319/M-SDE3FGHIRWY/LB1 |
Departure
| Time | 2026-05-05 22:22 |
|---|---|
| Airport | Salt Lake City International Airport (KSLC) |
Arrival
| Time | 2026-05-05 23:20 |
|---|---|
| Airport | Denver International Airport (KDEN) |
| Time | Latitude | Longitude | Altitude | Speed | Heading |
|---|---|---|---|---|---|
| 2026-05-05 21:56 | 40.78835 | -111.98767 | 4231 ft | 0 kts | 5° |
| 2026-05-05 22:07 | 40.78835 | -111.98768 | 4240 ft | 0 kts | 5° |
| 2026-05-05 22:10 | 40.78828 | -111.98768 | 4231 ft | 4 kts | 5° |
| 2026-05-05 22:10 | 40.78802 | -111.98772 | 4231 ft | 4 kts | 6° |
| 2026-05-05 22:10 | 40.78775 | -111.98778 | 4231 ft | 4 kts | 22° |
| 2026-05-05 22:11 | 40.78755 | -111.98798 | 4231 ft | 4 kts | 76° |
| 2026-05-05 22:11 | 40.78754 | -111.98805 | 4231 ft | 0 kts | 84° |
| 2026-05-05 22:14 | 40.78754 | -111.98800 | 4231 ft | 1 kts | 84° |
| 2026-05-05 22:14 | 40.78755 | -111.98784 | 4231 ft | 2 kts | 84° |
| 2026-05-05 22:14 | 40.78757 | -111.98755 | 4231 ft | 4 kts | 84° |
| 2026-05-05 22:15 | 40.78760 | -111.98716 | 4231 ft | 5 kts | 84° |
| 2026-05-05 22:15 | 40.78764 | -111.98666 | 4231 ft | 6 kts | 84° |
| 2026-05-05 22:15 | 40.78768 | -111.98605 | 4231 ft | 7 kts | 84° |
| 2026-05-05 22:15 | 40.78773 | -111.98533 | 4231 ft | 9 kts | 84° |
| 2026-05-05 22:16 | 40.78779 | -111.98449 | 4231 ft | 10 kts | 84° |
| 2026-05-05 22:16 | 40.78786 | -111.98353 | 4231 ft | 11 kts | 84° |
| 2026-05-05 22:16 | 40.78794 | -111.98244 | 4231 ft | 13 kts | 84° |
| 2026-05-05 22:16 | 40.78803 | -111.98123 | 4231 ft | 14 kts | 84° |
| 2026-05-05 22:17 | 40.78812 | -111.97990 | 4231 ft | 15 kts | 85° |
| 2026-05-05 22:17 | 40.78821 | -111.97861 | 4231 ft | 9 kts | 84° |
| 2026-05-05 22:17 | 40.78827 | -111.97788 | 4231 ft | 9 kts | 83° |
| 2026-05-05 22:17 | 40.78822 | -111.97707 | 4231 ft | 10 kts | 125° |
| 2026-05-05 22:18 | 40.78757 | -111.97682 | 4231 ft | 11 kts | 173° |
| 2026-05-05 22:18 | 40.78680 | -111.97672 | 4231 ft | 12 kts | 175° |
| 2026-05-05 22:18 | 40.78596 | -111.97665 | 4231 ft | 13 kts | 175° |
| 2026-05-05 22:18 | 40.78503 | -111.97654 | 4231 ft | 14 kts | 174° |
| 2026-05-05 22:19 | 40.78402 | -111.97641 | 4231 ft | 15 kts | 175° |
| 2026-05-05 22:19 | 40.78294 | -111.97629 | 4231 ft | 16 kts | 175° |
| 2026-05-05 22:19 | 40.78179 | -111.97615 | 4231 ft | 17 kts | 175° |
| 2026-05-05 22:19 | 40.78057 | -111.97601 | 4230 ft | 18 kts | 174° |
| 2026-05-05 22:20 | 40.77932 | -111.97574 | 4230 ft | 18 kts | 160° |
| 2026-05-05 22:20 | 40.77816 | -111.97525 | 4231 ft | 17 kts | 167° |
| 2026-05-05 22:20 | 40.77699 | -111.97510 | 4231 ft | 17 kts | 175° |
| 2026-05-05 22:20 | 40.77599 | -111.97498 | 4231 ft | 5 kts | 175° |
| 2026-05-05 22:21 | 40.77562 | -111.97489 | 4231 ft | 3 kts | 140° |
| 2026-05-05 22:21 | 40.77553 | -111.97445 | 4231 ft | 7 kts | 94° |
| 2026-05-05 22:21 | 40.77569 | -111.97365 | 4231 ft | 10 kts | 55° |
| 2026-05-05 22:21 | 40.77740 | -111.97346 | 4231 ft | 50 kts | 354° |
| 2026-05-05 22:22 | 40.78271 | -111.97407 | 4230 ft | 104 kts | 355° |
| 2026-05-05 22:22 | 40.79165 | -111.97513 | 4232 ft | 154 kts | 355° |
| 2026-05-05 22:22 | 40.80367 | -111.97661 | 4445 ft | 180 kts | 356° |
| 2026-05-05 22:22 | 40.81611 | -111.97826 | 5192 ft | 180 kts | 355° |
| 2026-05-05 22:23 | 40.82884 | -111.97977 | 5721 ft | 191 kts | 355° |
| 2026-05-05 22:23 | 40.84275 | -111.98143 | 6017 ft | 211 kts | 354° |
| 2026-05-05 22:23 | 40.85825 | -111.98334 | 6274 ft | 237 kts | 353° |
| 2026-05-05 22:23 | 40.87556 | -111.98551 | 6673 ft | 262 kts | 353° |
| 2026-05-05 22:24 | 40.89428 | -111.98792 | 7256 ft | 276 kts | 352° |
| 2026-05-05 22:24 | 40.91353 | -111.99100 | 8042 ft | 281 kts | 350° |
| 2026-05-05 22:24 | 40.93297 | -111.99453 | 8873 ft | 283 kts | 350° |
| 2026-05-05 22:24 | 40.95260 | -111.99826 | 9720 ft | 286 kts | 350° |
| 2026-05-05 22:25 | 40.97254 | -112.00213 | 10313 ft | 298 kts | 350° |
| 2026-05-05 22:25 | 40.99384 | -112.00624 | 10546 ft | 320 kts | 351° |
| 2026-05-05 22:25 | 41.01653 | -112.00608 | 11058 ft | 333 kts | 8° |
| 2026-05-05 22:25 | 41.03862 | -111.99641 | 11772 ft | 339 kts | 26° |
| 2026-05-05 22:26 | 41.05756 | -111.97771 | 12528 ft | 344 kts | 45° |
| 2026-05-05 22:26 | 41.07125 | -111.95160 | 13291 ft | 349 kts | 62° |
| 2026-05-05 22:26 | 41.08152 | -111.92237 | 14006 ft | 351 kts | 63° |
| 2026-05-05 22:26 | 41.09178 | -111.89289 | 14651 ft | 354 kts | 63° |
| 2026-05-05 22:27 | 41.10215 | -111.86312 | 15254 ft | 358 kts | 63° |
| 2026-05-05 22:27 | 41.11239 | -111.83288 | 15843 ft | 362 kts | 67° |
| 2026-05-05 22:27 | 41.11828 | -111.80009 | 16412 ft | 370 kts | 82° |
| 2026-05-05 22:27 | 41.11757 | -111.76570 | 16987 ft | 378 kts | 98° |
| 2026-05-05 22:28 | 41.10993 | -111.73221 | 17577 ft | 384 kts | 114° |
| 2026-05-05 22:28 | 41.09566 | -111.70206 | 18152 ft | 389 kts | 128° |
| 2026-05-05 22:28 | 41.07851 | -111.67414 | 18663 ft | 393 kts | 129° |
| 2026-05-05 22:28 | 41.06115 | -111.64599 | 19186 ft | 395 kts | 129° |
| 2026-05-05 22:29 | 41.04370 | -111.61767 | 19704 ft | 398 kts | 129° |
| 2026-05-05 22:29 | 41.02614 | -111.58918 | 20259 ft | 401 kts | 129° |
| 2026-05-05 22:29 | 41.00846 | -111.56050 | 20793 ft | 403 kts | 129° |
| 2026-05-05 22:29 | 40.99064 | -111.53162 | 21316 ft | 406 kts | 129° |
| 2026-05-05 22:30 | 40.97272 | -111.50262 | 21861 ft | 408 kts | 129° |
| 2026-05-05 22:30 | 40.95468 | -111.47341 | 22375 ft | 411 kts | 129° |
| 2026-05-05 22:30 | 40.93662 | -111.44391 | 22872 ft | 414 kts | 127° |
| 2026-05-05 22:30 | 40.92100 | -111.41184 | 23357 ft | 417 kts | 117° |
| 2026-05-05 22:31 | 40.90949 | -111.37662 | 23780 ft | 418 kts | 108° |
| 2026-05-05 22:31 | 40.90241 | -111.33925 | 24171 ft | 420 kts | 98° |
| 2026-05-05 22:31 | 40.89798 | -111.30095 | 24550 ft | 424 kts | 97° |
| 2026-05-05 22:31 | 40.89344 | -111.26228 | 24944 ft | 426 kts | 97° |
| 2026-05-05 22:32 | 40.88882 | -111.22345 | 25329 ft | 429 kts | 98° |
| 2026-05-05 22:32 | 40.88415 | -111.18439 | 25720 ft | 432 kts | 97° |
| 2026-05-05 22:32 | 40.87943 | -111.14508 | 26093 ft | 435 kts | 97° |
| 2026-05-05 22:32 | 40.87467 | -111.10553 | 26466 ft | 437 kts | 97° |
| 2026-05-05 22:33 | 40.86990 | -111.06575 | 26835 ft | 440 kts | 97° |
| 2026-05-05 22:33 | 40.86506 | -111.02570 | 27204 ft | 443 kts | 97° |
| 2026-05-05 22:33 | 40.86020 | -110.98543 | 27578 ft | 446 kts | 97° |
| 2026-05-05 22:33 | 40.85529 | -110.94487 | 27924 ft | 448 kts | 97° |
| 2026-05-05 22:34 | 40.85035 | -110.90407 | 28267 ft | 451 kts | 97° |
| 2026-05-05 22:34 | 40.84535 | -110.86302 | 28609 ft | 454 kts | 97° |
| 2026-05-05 22:34 | 40.84032 | -110.82173 | 28944 ft | 457 kts | 97° |
| 2026-05-05 22:34 | 40.83526 | -110.78016 | 29280 ft | 460 kts | 97° |
| 2026-05-05 22:35 | 40.83015 | -110.73837 | 29600 ft | 463 kts | 97° |
| 2026-05-05 22:35 | 40.82498 | -110.69628 | 29917 ft | 465 kts | 98° |
| 2026-05-05 22:35 | 40.81976 | -110.65401 | 30200 ft | 468 kts | 98° |
| 2026-05-05 22:35 | 40.81449 | -110.61152 | 30476 ft | 470 kts | 98° |
| 2026-05-05 22:36 | 40.80918 | -110.56881 | 30718 ft | 473 kts | 98° |
| 2026-05-05 22:36 | 40.80382 | -110.52586 | 30948 ft | 476 kts | 98° |
| 2026-05-05 22:36 | 40.79841 | -110.48265 | 31199 ft | 478 kts | 98° |
| 2026-05-05 22:36 | 40.79295 | -110.43923 | 31426 ft | 481 kts | 98° |
| 2026-05-05 22:37 | 40.78745 | -110.39562 | 31715 ft | 482 kts | 98° |
| 2026-05-05 22:37 | 40.78192 | -110.35196 | 32047 ft | 483 kts | 98° |
| 2026-05-05 22:37 | 40.77640 | -110.30825 | 32346 ft | 483 kts | 98° |
| 2026-05-05 22:37 | 40.77087 | -110.26448 | 32642 ft | 485 kts | 98° |
| 2026-05-05 22:38 | 40.76529 | -110.22057 | 32924 ft | 486 kts | 98° |
| 2026-05-05 22:38 | 40.75965 | -110.17654 | 33207 ft | 488 kts | 98° |
| 2026-05-05 22:38 | 40.75397 | -110.13241 | 33500 ft | 489 kts | 98° |
| 2026-05-05 22:38 | 40.74823 | -110.08810 | 33771 ft | 491 kts | 99° |
| 2026-05-05 22:39 | 40.74254 | -110.04365 | 34004 ft | 493 kts | 98° |
| 2026-05-05 22:39 | 40.73794 | -109.99883 | 34242 ft | 494 kts | 95° |
| 2026-05-05 22:39 | 40.73464 | -109.95376 | 34507 ft | 494 kts | 93° |
| 2026-05-05 22:39 | 40.73215 | -109.90849 | 34743 ft | 495 kts | 92° |
| 2026-05-05 22:40 | 40.72992 | -109.86312 | 34837 ft | 498 kts | 93° |
| 2026-05-05 22:40 | 40.72488 | -109.77098 | 34850 ft | 508 kts | 94° |
| 2026-05-05 22:41 | 40.71855 | -109.67785 | 34852 ft | 511 kts | 95° |
| 2026-05-05 22:41 | 40.71283 | -109.60028 | 34860 ft | 512 kts | 95° |
| 2026-05-05 22:42 | 40.70489 | -109.49087 | 34867 ft | 514 kts | 95° |
| 2026-05-05 22:42 | 40.69940 | -109.41287 | 34865 ft | 515 kts | 95° |
| 2026-05-05 22:43 | 40.69280 | -109.31896 | 34849 ft | 515 kts | 95° |
| 2026-05-05 22:43 | 40.68593 | -109.22498 | 34835 ft | 516 kts | 95° |
| 2026-05-05 22:44 | 40.67898 | -109.13087 | 34828 ft | 517 kts | 95° |
| 2026-05-05 22:44 | 40.67198 | -109.03663 | 34831 ft | 517 kts | 95° |
| 2026-05-05 22:45 | 40.66570 | -108.94215 | 34834 ft | 518 kts | 94° |
| 2026-05-05 22:45 | 40.65994 | -108.84748 | 34833 ft | 519 kts | 94° |
| 2026-05-05 22:46 | 40.65402 | -108.75268 | 34829 ft | 520 kts | 95° |
| 2026-05-05 22:46 | 40.64774 | -108.65770 | 34837 ft | 521 kts | 95° |
| 2026-05-05 22:47 | 40.64126 | -108.56264 | 34833 ft | 522 kts | 95° |
| 2026-05-05 22:47 | 40.63481 | -108.46740 | 34834 ft | 523 kts | 95° |
| 2026-05-05 22:48 | 40.62832 | -108.37193 | 34832 ft | 524 kts | 96° |
| 2026-05-05 22:48 | 40.62168 | -108.27624 | 34835 ft | 526 kts | 96° |
| 2026-05-05 22:49 | 40.61487 | -108.18040 | 34826 ft | 526 kts | 96° |
| 2026-05-05 22:49 | 40.60805 | -108.08439 | 34832 ft | 527 kts | 96° |
| 2026-05-05 22:50 | 40.60115 | -107.98825 | 34828 ft | 528 kts | 97° |
| 2026-05-05 22:50 | 40.59409 | -107.89190 | 34852 ft | 529 kts | 97° |
| 2026-05-05 22:51 | 40.58697 | -107.79542 | 34883 ft | 530 kts | 97° |
| 2026-05-05 22:51 | 40.57978 | -107.69877 | 34910 ft | 531 kts | 97° |
| 2026-05-05 22:52 | 40.57260 | -107.60207 | 34925 ft | 532 kts | 97° |
| 2026-05-05 22:52 | 40.56531 | -107.50529 | 34943 ft | 532 kts | 97° |
| 2026-05-05 22:53 | 40.55791 | -107.40835 | 34931 ft | 533 kts | 97° |
| 2026-05-05 22:53 | 40.55044 | -107.31123 | 34948 ft | 534 kts | 97° |
| 2026-05-05 22:54 | 40.54288 | -107.21391 | 34944 ft | 536 kts | 97° |
| 2026-05-05 22:54 | 40.53523 | -107.11635 | 34945 ft | 537 kts | 97° |
| 2026-05-05 22:55 | 40.52741 | -107.01865 | 34913 ft | 538 kts | 98° |
| 2026-05-05 22:55 | 40.51953 | -106.92078 | 34932 ft | 539 kts | 98° |
| 2026-05-05 22:56 | 40.51159 | -106.82276 | 34926 ft | 540 kts | 98° |
| 2026-05-05 22:56 | 40.50342 | -106.72455 | 34845 ft | 540 kts | 98° |
| 2026-05-05 22:56 | 40.49936 | -106.67582 | 34436 ft | 533 kts | 98° |
| 2026-05-05 22:57 | 40.49534 | -106.62737 | 33523 ft | 535 kts | 98° |
| 2026-05-05 22:57 | 40.49128 | -106.57880 | 32639 ft | 533 kts | 97° |
| 2026-05-05 22:57 | 40.48724 | -106.53079 | 31996 ft | 525 kts | 97° |
| 2026-05-05 22:57 | 40.48322 | -106.48380 | 31715 ft | 510 kts | 98° |
| 2026-05-05 22:58 | 40.47920 | -106.43818 | 31395 ft | 496 kts | 98° |
| 2026-05-05 22:58 | 40.47518 | -106.39355 | 30864 ft | 487 kts | 98° |
| 2026-05-05 22:58 | 40.47119 | -106.34983 | 30324 ft | 478 kts | 98° |
| 2026-05-05 22:58 | 40.46722 | -106.30688 | 29758 ft | 470 kts | 98° |
| 2026-05-05 22:59 | 40.46332 | -106.26466 | 29118 ft | 462 kts | 98° |
| 2026-05-05 22:59 | 40.45950 | -106.22311 | 28463 ft | 455 kts | 98° |
| 2026-05-05 22:59 | 40.45575 | -106.18217 | 27812 ft | 448 kts | 98° |
| 2026-05-05 22:59 | 40.45208 | -106.14181 | 27172 ft | 442 kts | 98° |
| 2026-05-05 23:00 | 40.44515 | -106.06261 | 25999 ft | 430 kts | 98° |
| 2026-05-05 23:00 | 40.44185 | -106.02392 | 25735 ft | 424 kts | 98° |
| 2026-05-05 23:00 | 40.43854 | -105.98548 | 25442 ft | 423 kts | 98° |
| 2026-05-05 23:01 | 40.43516 | -105.94727 | 25139 ft | 420 kts | 98° |
| 2026-05-05 23:01 | 40.43172 | -105.90935 | 24842 ft | 417 kts | 98° |
| 2026-05-05 23:01 | 40.42728 | -105.87188 | 24466 ft | 414 kts | 101° |
| 2026-05-05 23:01 | 40.42182 | -105.83545 | 24087 ft | 411 kts | 103° |
| 2026-05-05 23:02 | 40.41569 | -105.79894 | 23714 ft | 408 kts | 104° |
| 2026-05-05 23:02 | 40.40943 | -105.76278 | 23331 ft | 405 kts | 104° |
| 2026-05-05 23:02 | 40.40330 | -105.72692 | 22944 ft | 401 kts | 103° |
| 2026-05-05 23:02 | 40.39737 | -105.69132 | 22598 ft | 397 kts | 103° |
| 2026-05-05 23:03 | 40.39164 | -105.65606 | 22215 ft | 394 kts | 103° |
| 2026-05-05 23:03 | 40.38604 | -105.62101 | 21864 ft | 391 kts | 102° |
| 2026-05-05 23:03 | 40.38053 | -105.58616 | 21365 ft | 390 kts | 102° |
| 2026-05-05 23:03 | 40.37505 | -105.55143 | 20892 ft | 388 kts | 102° |
| 2026-05-05 23:04 | 40.36958 | -105.51698 | 20488 ft | 384 kts | 103° |
| 2026-05-05 23:04 | 40.36408 | -105.48276 | 20047 ft | 382 kts | 103° |
| 2026-05-05 23:04 | 40.35859 | -105.44880 | 19559 ft | 381 kts | 103° |
| 2026-05-05 23:04 | 40.35312 | -105.41515 | 19344 ft | 372 kts | 103° |
| 2026-05-05 23:05 | 40.34672 | -105.38291 | 19195 ft | 360 kts | 111° |
| 2026-05-05 23:05 | 40.33629 | -105.35358 | 18943 ft | 351 kts | 123° |
| 2026-05-05 23:05 | 40.32228 | -105.32775 | 18783 ft | 347 kts | 131° |
| 2026-05-05 23:05 | 40.30743 | -105.30289 | 18628 ft | 346 kts | 130° |
| 2026-05-05 23:06 | 40.29270 | -105.27800 | 18459 ft | 345 kts | 130° |
| 2026-05-05 23:06 | 40.27808 | -105.25314 | 18283 ft | 344 kts | 130° |
| 2026-05-05 23:06 | 40.26350 | -105.22836 | 18109 ft | 343 kts | 130° |
| 2026-05-05 23:06 | 40.24895 | -105.20370 | 17957 ft | 342 kts | 130° |
| 2026-05-05 23:07 | 40.23439 | -105.17910 | 17770 ft | 341 kts | 130° |
| 2026-05-05 23:07 | 40.21994 | -105.15471 | 17601 ft | 340 kts | 130° |
| 2026-05-05 23:07 | 40.20547 | -105.13029 | 17429 ft | 339 kts | 130° |
| 2026-05-05 23:07 | 40.19100 | -105.10592 | 17262 ft | 339 kts | 130° |
| 2026-05-05 23:08 | 40.17656 | -105.08167 | 17093 ft | 338 kts | 130° |
| 2026-05-05 23:08 | 40.16214 | -105.05750 | 16860 ft | 336 kts | 130° |
| 2026-05-05 23:08 | 40.14779 | -105.03346 | 16618 ft | 335 kts | 131° |
| 2026-05-05 23:08 | 40.13190 | -105.01150 | 16385 ft | 331 kts | 138° |
| 2026-05-05 23:09 | 40.11549 | -104.99040 | 16125 ft | 330 kts | 138° |
| 2026-05-05 23:09 | 40.09915 | -104.96940 | 15887 ft | 329 kts | 138° |
| 2026-05-05 23:09 | 40.08287 | -104.94847 | 15657 ft | 328 kts | 138° |
| 2026-05-05 23:09 | 40.06668 | -104.92764 | 15431 ft | 326 kts | 137° |
| 2026-05-05 23:10 | 40.05059 | -104.90690 | 15194 ft | 324 kts | 137° |
| 2026-05-05 23:10 | 40.03459 | -104.88627 | 14965 ft | 323 kts | 137° |
| 2026-05-05 23:10 | 40.01866 | -104.86572 | 14731 ft | 321 kts | 137° |
| 2026-05-05 23:10 | 40.00281 | -104.84532 | 14500 ft | 319 kts | 137° |
| 2026-05-05 23:11 | 39.98643 | -104.82594 | 14221 ft | 316 kts | 146° |
| 2026-05-05 23:11 | 39.96730 | -104.81234 | 14000 ft | 312 kts | 161° |
| 2026-05-05 23:11 | 39.94624 | -104.80551 | 13471 ft | 315 kts | 176° |
| 2026-05-05 23:11 | 39.92461 | -104.80541 | 13172 ft | 309 kts | 183° |
| 2026-05-05 23:12 | 39.90321 | -104.80612 | 12780 ft | 307 kts | 182° |
| 2026-05-05 23:12 | 39.88188 | -104.80669 | 12324 ft | 305 kts | 182° |
| 2026-05-05 23:12 | 39.86078 | -104.80720 | 11872 ft | 301 kts | 182° |
| 2026-05-05 23:12 | 39.83982 | -104.80777 | 11384 ft | 299 kts | 182° |
| 2026-05-05 23:13 | 39.81955 | -104.80825 | 11204 ft | 282 kts | 182° |
| 2026-05-05 23:13 | 39.80050 | -104.80860 | 11070 ft | 265 kts | 181° |
| 2026-05-05 23:13 | 39.78260 | -104.80883 | 10946 ft | 252 kts | 181° |
| 2026-05-05 23:13 | 39.76521 | -104.80899 | 10630 ft | 248 kts | 181° |
| 2026-05-05 23:14 | 39.74804 | -104.80919 | 10299 ft | 246 kts | 181° |
| 2026-05-05 23:14 | 39.73097 | -104.80947 | 9969 ft | 245 kts | 181° |
| 2026-05-05 23:14 | 39.71392 | -104.80990 | 9619 ft | 245 kts | 181° |
| 2026-05-05 23:14 | 39.69707 | -104.80799 | 9255 ft | 243 kts | 163° |
| 2026-05-05 23:15 | 39.68254 | -104.79731 | 9002 ft | 240 kts | 136° |
| 2026-05-05 23:15 | 39.67317 | -104.77940 | 9000 ft | 243 kts | 111° |
| 2026-05-05 23:15 | 39.66963 | -104.75806 | 8993 ft | 243 kts | 91° |
| 2026-05-05 23:15 | 39.67164 | -104.73637 | 8992 ft | 243 kts | 72° |
| 2026-05-05 23:16 | 39.67893 | -104.71670 | 8943 ft | 243 kts | 53° |
| 2026-05-05 23:16 | 39.69067 | -104.70122 | 8779 ft | 239 kts | 34° |
| 2026-05-05 23:16 | 39.70523 | -104.69177 | 8543 ft | 232 kts | 16° |
| 2026-05-05 23:16 | 39.72094 | -104.68883 | 8267 ft | 225 kts | 360° |
| 2026-05-05 23:17 | 39.73614 | -104.68867 | 8019 ft | 211 kts | 360° |
| 2026-05-05 23:17 | 39.75038 | -104.68851 | 7719 ft | 199 kts | 360° |
| 2026-05-05 23:17 | 39.76387 | -104.68835 | 7467 ft | 191 kts | 360° |
| 2026-05-05 23:17 | 39.77700 | -104.68820 | 7232 ft | 187 kts | 360° |
| 2026-05-05 23:18 | 39.78976 | -104.68805 | 7001 ft | 175 kts | 360° |
| 2026-05-05 23:18 | 39.80114 | -104.68791 | 6813 ft | 154 kts | 360° |
| 2026-05-05 23:18 | 39.81151 | -104.68779 | 6628 ft | 146 kts | 360° |
| 2026-05-05 23:18 | 39.82153 | -104.68768 | 6401 ft | 142 kts | 0° |
| 2026-05-05 23:19 | 39.83132 | -104.68756 | 6158 ft | 139 kts | 1° |
| 2026-05-05 23:19 | 39.84093 | -104.68745 | 5925 ft | 137 kts | 2° |
| 2026-05-05 23:19 | 39.85038 | -104.68735 | 5709 ft | 134 kts | 2° |
| 2026-05-05 23:19 | 39.85968 | -104.68726 | 5505 ft | 134 kts | 1° |
| 2026-05-05 23:20 | 39.86886 | -104.68712 | 5366 ft | 124 kts | 2° |
| 2026-05-05 23:20 | 39.87592 | -104.68702 | 5365 ft | 77 kts | 360° |
| 2026-05-05 23:20 | 39.88074 | -104.68696 | 5365 ft | 68 kts | 1° |
| 2026-05-05 23:20 | 39.88453 | -104.68667 | 5365 ft | 41 kts | 15° |
| 2026-05-05 23:21 | 39.88613 | -104.68548 | 5366 ft | 10 kts | 64° |
| 2026-05-05 23:21 | 39.88577 | -104.68480 | 5366 ft | 10 kts | 164° |
| 2026-05-05 23:21 | 39.88515 | -104.68477 | 5364 ft | 8 kts | 178° |
| 2026-05-05 23:21 | 39.88454 | -104.68480 | 5365 ft | 9 kts | 182° |
| 2026-05-05 23:22 | 39.88389 | -104.68482 | 5365 ft | 11 kts | 180° |
| 2026-05-05 23:22 | 39.88292 | -104.68482 | 5365 ft | 17 kts | 180° |
| 2026-05-05 23:22 | 39.88152 | -104.68482 | 5364 ft | 23 kts | 180° |
| 2026-05-05 23:22 | 39.87965 | -104.68485 | 5365 ft | 30 kts | 180° |
| 2026-05-05 23:23 | 39.87743 | -104.68488 | 5366 ft | 34 kts | 180° |
| 2026-05-05 23:23 | 39.87492 | -104.68490 | 5364 ft | 38 kts | 180° |
| 2026-05-05 23:23 | 39.87254 | -104.68495 | 5365 ft | 31 kts | 180° |
| 2026-05-05 23:23 | 39.87101 | -104.68496 | 5365 ft | 34 kts | 180° |
| 2026-05-05 23:24 | 39.86851 | -104.68498 | 5364 ft | 38 kts | 181° |
| 2026-05-05 23:24 | 39.86570 | -104.68503 | 5365 ft | 42 kts | 180° |
| 2026-05-05 23:24 | 39.86258 | -104.68504 | 5366 ft | 47 kts | 181° |
| 2026-05-05 23:24 | 39.85920 | -104.68510 | 5365 ft | 46 kts | 180° |
| 2026-05-05 23:25 | 39.85726 | -104.68504 | 5366 ft | 14 kts | 160° |
| 2026-05-05 23:25 | 39.85691 | -104.68429 | 5365 ft | 16 kts | 101° |
| 2026-05-05 23:25 | 39.85689 | -104.68262 | 5365 ft | 21 kts | 90° |
| 2026-05-05 23:25 | 39.85681 | -104.68095 | 5366 ft | 15 kts | 90° |
| 2026-05-05 23:26 | 39.85762 | -104.68060 | 5365 ft | 17 kts | 353° |
| 2026-05-05 23:26 | 39.85809 | -104.68063 | 5365 ft | 2 kts | 0° |
| 2026-05-05 23:26 | 39.85812 | -104.68063 | 5365 ft | 0 kts | 0° |